Jalma Topic — A8IQ6 — position and weather

sailwx.info

Track history (hours):
 
Tides and Currents Weather Stations Pressure Air Temp Water Temp Dewpoint Dewpoint Depression Visibility Wind Speed Wind Dir Waves Ship Positions

Jalma Topic

Last reported at 2018-Apr-13 12:44 UTC. Time now 2018-Apr-23 13:47 UTC.
Position S 31°04' E 030°29'.
Warning: this ship's position is 10 days out of date.

Length 183 m; draft 8.9 m.

Type: Cargo ship. MMSI: 636012871.

Date/timePositionNaut miles runAvg speedWind from/ knotsBaromVisibWave heightAir tempDewpointWater temp
2018-Apr-13 12:44S 31°04' E 030°29'311.7
2018-Apr-13 12:30S 31°02' E 030°31'611.8
2018-Apr-13 11:59S 30°56' E 030°34'611.8
2018-Apr-13 11:30S 30°51' E 030°37'611.8
2018-Apr-13 10:58S 30°46' E 030°41'711.8
2018-Apr-13 10:21S 30°40' E 030°45'412.1
2018-Apr-13 09:59S 30°36' E 030°48'612.3
2018-Apr-13 09:30S 30°30' E 030°51'612.4
2018-Apr-13 08:59S 30°25' E 030°54'612.2
2018-Apr-13 08:30S 30°20' E 030°58'612.2
2018-Apr-13 08:00S 30°14' E 031°01'612.1
2018-Apr-13 07:30S 30°09' E 031°04'612.0
2018-Apr-13 07:00S 30°03' E 031°06'611.7
2018-Apr-13 06:30S 29°58' E 031°08'510.9
2018-Apr-13 06:00S 29°52' E 031°08'4 8.2
2018-Apr-13 05:30S 29°52' E 031°04'1 2.8
2018-Apr-13 05:00S 29°52' E 031°02'0 0.2
2018-Apr-13 04:30S 29°52' E 031°02'0 0.0
2018-Apr-13 04:00S 29°52' E 031°02'0 0.0
2018-Apr-13 03:30S 29°52' E 031°02'0 0.0
2018-Apr-13 03:00S 29°52' E 031°02'0 0.0
2018-Apr-13 02:30S 29°52' E 031°02'0 0.0
2018-Apr-13 02:00S 29°52' E 031°02'0 0.0
2018-Apr-13 01:30S 29°52' E 031°02'0 0.0
2018-Apr-13 01:00S 29°52' E 031°02'0 0.0
2018-Apr-13 00:30S 29°52' E 031°02'0 0.0
2018-Apr-12 23:57S 29°52' E 031°02'0 0.0
2018-Apr-12 23:30S 29°52' E 031°02'0 0.2
2018-Apr-12 22:57S 29°52' E 031°02'0 0.0
2018-Apr-12 22:30S 29°52' E 031°02'0 0.0
2018-Apr-12 22:00S 29°52' E 031°02'0 0.0
2018-Apr-12 21:30S 29°52' E 031°02'0 0.0
2018-Apr-12 20:57S 29°52' E 031°02'0 0.0
2018-Apr-12 20:27S 29°52' E 031°02'0 0.0
2018-Apr-12 20:00S 29°52' E 031°02'0 0.0
2018-Apr-12 19:30S 29°52' E 031°02'0 0.0
2018-Apr-12 19:00S 29°52' E 031°02'0 0.0
2018-Apr-12 18:30S 29°52' E 031°02'0 0.0
2018-Apr-12 18:00S 29°52' E 031°02'0 0.0
2018-Apr-12 17:30S 29°52' E 031°02'0 0.0
2018-Apr-12 17:00S 29°52' E 031°02'0 0.0
2018-Apr-12 16:30S 29°52' E 031°02'0 0.0
2018-Apr-12 16:00S 29°52' E 031°02'0 0.0
2018-Apr-12 15:30S 29°52' E 031°02'0 0.0
2018-Apr-12 15:00S 29°52' E 031°02'0 0.0
2018-Apr-12 14:27S 29°52' E 031°02'0 0.0
2018-Apr-12 13:57S 29°52' E 031°02'0 0.0
2018-Apr-12 13:30S 29°52' E 031°02'0 0.0
2018-Apr-12 12:57S 29°52' E 031°02'0 0.0
2018-Apr-12 12:30S 29°52' E 031°02'0 0.0
2018-Apr-12 12:00S 29°52' E 031°02'0 0.0
2018-Apr-12 11:27S 29°52' E 031°02'0 0.0
2018-Apr-12 11:00S 29°52' E 031°02'0 0.0
2018-Apr-12 10:27S 29°52' E 031°02'0 0.0
2018-Apr-12 10:00S 29°52' E 031°02'0 0.0
2018-Apr-12 09:27S 29°52' E 031°02'0 0.0
2018-Apr-12 09:00S 29°52' E 031°02'0 0.0
2018-Apr-12 08:27S 29°52' E 031°02'0 0.0
2018-Apr-12 07:57S 29°52' E 031°02'0 0.0
2018-Apr-12 07:30S 29°52' E 031°02'0 0.0
2018-Apr-12 07:00S 29°52' E 031°02'1 1.4
2018-Apr-12 06:30S 29°53' E 031°03'4 7.1
2018-Apr-12 06:00S 29°50' E 031°06'4 8.0
2018-Apr-12 05:30S 29°47' E 031°08'2 4.8
2018-Apr-12 05:00S 29°44' E 031°09'0 0.2
2018-Apr-12 04:30S 29°44' E 031°09'0 0.0
2018-Apr-12 04:00S 29°44' E 031°09'0 0.0
2018-Apr-12 03:30S 29°44' E 031°09'0 0.0
2018-Apr-12 02:54S 29°44' E 031°09'0 0.0
2018-Apr-12 02:27S 29°44' E 031°09'0 0.0
2018-Apr-12 02:00S 29°44' E 031°09'0 0.0
2018-Apr-12 01:30S 29°44' E 031°09'0 0.0
2018-Apr-12 01:00S 29°44' E 031°09'0 0.4
2018-Apr-12 00:30S 29°44' E 031°09'2 4.2
2018-Apr-12 00:00S 29°44' E 031°11'4 7.2
2018-Apr-11 23:30S 29°46' E 031°15'5 9.6
2018-Apr-11 23:00S 29°43' E 031°19'5 9.6
2018-Apr-11 22:30S 29°40' E 031°24'5 9.5
2018-Apr-11 22:00S 29°38' E 031°28'5 9.7
2018-Apr-11 21:30S 29°35' E 031°33'5 9.8
2018-Apr-11 21:00S 29°33' E 031°38'510.1
2018-Apr-11 20:30S 29°30' E 031°43'611.0
2018-Apr-11 20:00S 29°27' E 031°48'510.8
2018-Apr-11 19:30S 29°24' E 031°53'  
Track history (hours):
 
Tides and Currents Weather Stations Pressure Air Temp Water Temp Dewpoint Dewpoint Depression Visibility Wind Speed Wind Dir Waves Ship Positions

Jalma Topic

Last reported at 2018-Apr-13 12:44 UTC. Time now 2018-Apr-23 13:47 UTC.
Position S 31°04' E 030°29'.
Warning: this ship's position is 10 days out of date.

Length 183 m; draft 8.9 m.

Type: Cargo ship. MMSI: 636012871.

Date/timePositionNaut miles runAvg speedWind from/ knotsBaromVisibWave heightAir tempDewpointWater temp
2018-Apr-13 12:44S 31°04' E 030°29'311.7
2018-Apr-13 12:30S 31°02' E 030°31'611.8
2018-Apr-13 11:59S 30°56' E 030°34'611.8
2018-Apr-13 11:30S 30°51' E 030°37'611.8
2018-Apr-13 10:58S 30°46' E 030°41'711.8
2018-Apr-13 10:21S 30°40' E 030°45'412.1
2018-Apr-13 09:59S 30°36' E 030°48'612.3
2018-Apr-13 09:30S 30°30' E 030°51'612.4
2018-Apr-13 08:59S 30°25' E 030°54'612.2
2018-Apr-13 08:30S 30°20' E 030°58'612.2
2018-Apr-13 08:00S 30°14' E 031°01'612.1
2018-Apr-13 07:30S 30°09' E 031°04'612.0
2018-Apr-13 07:00S 30°03' E 031°06'611.7
2018-Apr-13 06:30S 29°58' E 031°08'510.9
2018-Apr-13 06:00S 29°52' E 031°08'4 8.2
2018-Apr-13 05:30S 29°52' E 031°04'1 2.8
2018-Apr-13 05:00S 29°52' E 031°02'0 0.2
2018-Apr-13 04:30S 29°52' E 031°02'0 0.0
2018-Apr-13 04:00S 29°52' E 031°02'0 0.0
2018-Apr-13 03:30S 29°52' E 031°02'0 0.0
2018-Apr-13 03:00S 29°52' E 031°02'0 0.0
2018-Apr-13 02:30S 29°52' E 031°02'0 0.0
2018-Apr-13 02:00S 29°52' E 031°02'0 0.0
2018-Apr-13 01:30S 29°52' E 031°02'0 0.0
2018-Apr-13 01:00S 29°52' E 031°02'0 0.0
2018-Apr-13 00:30S 29°52' E 031°02'0 0.0
2018-Apr-12 23:57S 29°52' E 031°02'0 0.0
2018-Apr-12 23:30S 29°52' E 031°02'0 0.2
2018-Apr-12 22:57S 29°52' E 031°02'0 0.0
2018-Apr-12 22:30S 29°52' E 031°02'0 0.0
2018-Apr-12 22:00S 29°52' E 031°02'0 0.0
2018-Apr-12 21:30S 29°52' E 031°02'0 0.0
2018-Apr-12 20:57S 29°52' E 031°02'0 0.0
2018-Apr-12 20:27S 29°52' E 031°02'0 0.0
2018-Apr-12 20:00S 29°52' E 031°02'0 0.0
2018-Apr-12 19:30S 29°52' E 031°02'0 0.0
2018-Apr-12 19:00S 29°52' E 031°02'0 0.0
2018-Apr-12 18:30S 29°52' E 031°02'0 0.0
2018-Apr-12 18:00S 29°52' E 031°02'0 0.0
2018-Apr-12 17:30S 29°52' E 031°02'0 0.0
2018-Apr-12 17:00S 29°52' E 031°02'0 0.0
2018-Apr-12 16:30S 29°52' E 031°02'0 0.0
2018-Apr-12 16:00S 29°52' E 031°02'0 0.0
2018-Apr-12 15:30S 29°52' E 031°02'0 0.0
2018-Apr-12 15:00S 29°52' E 031°02'0 0.0
2018-Apr-12 14:27S 29°52' E 031°02'0 0.0
2018-Apr-12 13:57S 29°52' E 031°02'0 0.0
2018-Apr-12 13:30S 29°52' E 031°02'0 0.0
2018-Apr-12 12:57S 29°52' E 031°02'0 0.0
2018-Apr-12 12:30S 29°52' E 031°02'0 0.0
2018-Apr-12 12:00S 29°52' E 031°02'0 0.0
2018-Apr-12 11:27S 29°52' E 031°02'0 0.0
2018-Apr-12 11:00S 29°52' E 031°02'0 0.0
2018-Apr-12 10:27S 29°52' E 031°02'0 0.0
2018-Apr-12 10:00S 29°52' E 031°02'0 0.0
2018-Apr-12 09:27S 29°52' E 031°02'0 0.0
2018-Apr-12 09:00S 29°52' E 031°02'0 0.0
2018-Apr-12 08:27S 29°52' E 031°02'0 0.0
2018-Apr-12 07:57S 29°52' E 031°02'0 0.0
2018-Apr-12 07:30S 29°52' E 031°02'0 0.0
2018-Apr-12 07:00S 29°52' E 031°02'1 1.4
2018-Apr-12 06:30S 29°53' E 031°03'4 7.1
2018-Apr-12 06:00S 29°50' E 031°06'4 8.0
2018-Apr-12 05:30S 29°47' E 031°08'2 4.8
2018-Apr-12 05:00S 29°44' E 031°09'0 0.2
2018-Apr-12 04:30S 29°44' E 031°09'0 0.0
2018-Apr-12 04:00S 29°44' E 031°09'0 0.0
2018-Apr-12 03:30S 29°44' E 031°09'0 0.0
2018-Apr-12 02:54S 29°44' E 031°09'0 0.0
2018-Apr-12 02:27S 29°44' E 031°09'0 0.0
2018-Apr-12 02:00S 29°44' E 031°09'0 0.0
2018-Apr-12 01:30S 29°44' E 031°09'0 0.0
2018-Apr-12 01:00S 29°44' E 031°09'0 0.4
2018-Apr-12 00:30S 29°44' E 031°09'2 4.2
2018-Apr-12 00:00S 29°44' E 031°11'4 7.2
2018-Apr-11 23:30S 29°46' E 031°15'5 9.6
2018-Apr-11 23:00S 29°43' E 031°19'5 9.6
2018-Apr-11 22:30S 29°40' E 031°24'5 9.5
2018-Apr-11 22:00S 29°38' E 031°28'5 9.7
2018-Apr-11 21:30S 29°35' E 031°33'5 9.8
2018-Apr-11 21:00S 29°33' E 031°38'510.1
2018-Apr-11 20:30S 29°30' E 031°43'611.0
2018-Apr-11 20:00S 29°27' E 031°48'510.8
2018-Apr-11 19:30S 29°24' E 031°53'  

Dump ship's entire track history